Time;durP1;ratioP1;P1;durP2;ratioP2;P2;SDS_P1;SDS_P2;PMS_P1;PMS_P2;Temp;Humidity;BMP_temperature;BMP_pressure;BME280_temperature;BME280_humidity;BME280_pressure;Samples;Min_cycle;Max_cycle;Signal;HPM_P1;HPM_P2
2021/10/30 00:01:31;;;;;;;;;;;;;;;3.24;100.00;100565.93;1708100;84;20081;-66
2021/10/30 00:03:58;;;;;;;;;;;;;;;3.26;100.00;100569.20;1707063;83;20525;-66
2021/10/30 00:06:25;;;;;;;;;;;;;;;3.26;100.00;100570.53;1706079;84;20071;-67
2021/10/30 00:08:52;;;;;;;;;;;;;;;3.26;100.00;100563.89;1708248;84;21143;-66
2021/10/30 00:11:18;;;;;;;;;;;;;;;3.25;100.00;100564.41;1705147;84;20165;-66
2021/10/30 00:13:45;;;;;;;;;;;;;;;3.22;100.00;100561.61;1706364;84;20094;-66
2021/10/30 00:16:14;;;;;;;;;;;;;;;3.20;100.00;100564.94;1711400;83;20533;-65
2021/10/30 00:18:40;;;;;;;;;;;;;;;3.17;100.00;100569.80;1711547;83;20138;-66
2021/10/30 00:21:07;;;;;;;;;;;;;;;3.14;100.00;100565.67;1707440;84;21075;-67
2021/10/30 00:23:33;;;;;;;;;;;;;;;3.14;100.00;100561.70;1706128;84;20090;-66
2021/10/30 00:26:00;;;;;;;;;;;;;;;3.16;100.00;100555.72;1708207;84;20097;-66
2021/10/30 00:28:26;;;;;;;;;;;;;;;3.13;100.00;100561.87;1711711;84;20364;-67
2021/10/30 00:30:53;;;;;;;;;;;;;;;3.08;100.00;100557.09;1711329;83;20109;-67
2021/10/30 00:33:20;;;;;;;;;;;;;;;3.05;100.00;100562.77;1706118;84;21140;-67
2021/10/30 00:35:46;;;;;;;;;;;;;;;3.06;100.00;100552.98;1706089;84;20435;-66
2021/10/30 00:38:13;;;;;;;;;;;;;;;3.08;100.00;100550.47;1709262;84;20142;-67
2021/10/30 00:40:39;;;;;;;;;;;;;;;3.12;100.00;100557.58;1706092;84;20082;-67
2021/10/30 00:43:06;;;;;;;;;;;;;;;3.15;100.00;100559.86;1706356;84;20205;-66
2021/10/30 00:45:33;;;;;;;;;;;;;;;3.14;100.00;100555.06;1709755;84;21018;-66
2021/10/30 00:47:59;;;;;;;;;;;;;;;3.11;100.00;100548.80;1711808;84;20082;-65
2021/10/30 00:50:26;;;;;;;;;;;;;;;3.07;100.00;100552.81;1708715;83;20208;-65
2021/10/30 00:52:53;;;;;;;;;;;;;;;3.04;100.00;100553.18;1708322;83;20358;-65
2021/10/30 00:55:23;;;;;;;;;;;;;;;3.05;100.00;100552.67;1708025;83;20066;-66
2021/10/30 00:57:50;;;;;;;;;;;;;;;3.03;100.00;100544.06;1708798;83;21126;-66
2021/10/30 01:00:16;;;;;;;;;;;;;;;3.05;100.00;100548.69;1713702;83;20133;-66
2021/10/30 01:02:43;;;;;;;;;;;;;;;3.04;100.00;100550.53;1709633;83;20163;-65
2021/10/30 01:05:09;;;;;;;;;;;;;;;3.02;100.00;100552.53;1693251;83;20141;-65
2021/10/30 01:07:36;;;;;;;;;;;;;;;2.92;100.00;100555.94;1712170;83;20130;-65
2021/10/30 01:10:03;;;;;;;;;;;;;;;2.85;100.00;100547.87;1708112;83;21130;-65
2021/10/30 01:12:30;;;;;;;;;;;;;;;2.79;100.00;100545.44;1707945;83;20082;-66
2021/10/30 01:14:58;;;;;;;;;;;;;;;2.72;100.00;100542.33;1713262;83;20117;-66
2021/10/30 01:17:24;;;;;;;;;;;;;;;2.69;100.00;100547.48;1713546;83;20456;-65
2021/10/30 01:19:54;;;;;;;;;;;;;;;2.69;100.00;100545.34;1705533;83;20066;-65
2021/10/30 01:22:21;;;;;;;;;;;;;;;2.66;100.00;100547.84;1707797;83;21071;-65
2021/10/30 01:24:48;;;;;;;;;;;;;;;2.64;100.00;100549.03;1712154;83;20151;-66
2021/10/30 01:27:16;;;;;;;;;;;;;;;2.59;100.00;100548.23;1711403;83;20086;-66
2021/10/30 01:29:43;;;;;;;;;;;;;;;2.49;100.00;100553.77;1707707;83;20098;-67
2021/10/30 01:32:09;;;;;;;;;;;;;;;2.46;100.00;100557.28;1707538;83;20136;-66
2021/10/30 01:34:36;;;;;;;;;;;;;;;2.47;100.00;100557.09;1707742;83;21165;-67
2021/10/30 01:37:04;;;;;;;;;;;;;;;2.47;100.00;100544.34;1710108;83;20404;-66
2021/10/30 01:39:31;;;;;;;;;;;;;;;2.53;100.00;100547.62;1707576;83;20160;-67
2021/10/30 01:41:58;;;;;;;;;;;;;;;2.55;100.00;100552.26;1710033;83;20117;-67
2021/10/30 01:44:24;;;;;;;;;;;;;;;2.63;100.00;100552.69;1713868;83;20093;-66
2021/10/30 01:46:58;;;;;;;;;;;;;;;2.71;100.00;100554.77;1713909;83;21139;-66
2021/10/30 01:49:25;;;;;;;;;;;;;;;2.76;100.00;100551.08;1709034;82;20078;-67
2021/10/30 01:51:52;;;;;;;;;;;;;;;2.78;100.00;100547.75;1713758;83;20079;-66
2021/10/30 01:54:19;;;;;;;;;;;;;;;2.79;100.00;100553.39;1717631;83;20152;-67
2021/10/30 01:56:45;;;;;;;;;;;;;;;2.76;100.00;100552.40;1719594;83;20376;-66
2021/10/30 01:59:11;;;;;;;;;;;;;;;2.78;100.00;100557.03;1713367;83;21105;-66
2021/10/30 02:01:38;;;;;;;;;;;;;;;2.86;100.00;100558.78;1713798;83;20121;-66
2021/10/30 02:04:04;;;;;;;;;;;;;;;2.89;100.00;100554.95;1714177;83;20086;-64
2021/10/30 02:06:31;;;;;;;;;;;;;;;2.86;100.00;100557.45;1718971;83;20109;-66
2021/10/30 02:08:57;;;;;;;;;;;;;;;2.84;100.00;100555.48;1719320;83;20439;-66
2021/10/30 02:11:24;;;;;;;;;;;;;;;2.87;100.00;100553.82;1706572;83;21131;-65
2021/10/30 02:13:50;;;;;;;;;;;;;;;2.89;100.00;100553.62;1712460;83;20078;-64
2021/10/30 02:16:17;;;;;;;;;;;;;;;2.85;100.00;100553.68;1710140;83;20141;-64
2021/10/30 02:18:43;;;;;;;;;;;;;;;2.76;100.00;100557.70;1717872;83;20100;-66
2021/10/30 02:21:12;;;;;;;;;;;;;;;2.71;100.00;100548.64;1715377;83;20090;-65
2021/10/30 02:23:38;;;;;;;;;;;;;;;2.65;100.00;100552.84;1714225;83;21127;-65
2021/10/30 02:26:05;;;;;;;;;;;;;;;2.65;100.00;100559.47;1719429;83;20081;-65
2021/10/30 02:28:32;;;;;;;;;;;;;;;2.66;100.00;100553.15;1716557;83;20110;-66
2021/10/30 02:30:59;;;;;;;;;;;;;;;2.61;100.00;100554.19;1713776;83;20101;-66
2021/10/30 02:33:25;;;;;;;;;;;;;;;2.59;100.00;100552.20;1715120;83;20113;-65
2021/10/30 02:35:51;;;;;;;;;;;;;;;2.62;100.00;100555.85;1719452;83;20501;-66
2021/10/30 02:38:19;;;;;;;;;;;;;;;2.64;100.00;100559.13;1719275;83;20117;-66
2021/10/30 02:40:45;;;;;;;;;;;;;;;2.67;100.00;100553.48;1718640;83;20419;-67
2021/10/30 02:43:11;;;;;;;;;;;;;;;2.69;100.00;100554.11;1719807;83;20110;-67
2021/10/30 02:45:38;;;;;;;;;;;;;;;2.69;100.00;100553.30;1716545;83;20110;-66
2021/10/30 02:48:05;;;;;;;;;;;;;;;2.68;100.00;100554.31;1714168;83;21109;-66
2021/10/30 02:50:32;;;;;;;;;;;;;;;2.68;100.00;100563.08;1711427;83;20172;-67
2021/10/30 02:52:58;;;;;;;;;;;;;;;2.71;100.00;100560.06;1711266;83;20078;-66
2021/10/30 02:55:25;;;;;;;;;;;;;;;2.78;100.00;100558.86;1708357;83;20152;-66
2021/10/30 02:57:52;;;;;;;;;;;;;;;2.81;100.00;100556.35;1704922;83;20212;-67
2021/10/30 03:00:18;;;;;;;;;;;;;;;2.82;100.00;100564.14;1708187;83;21090;-66
2021/10/30 03:02:45;;;;;;;;;;;;;;;2.83;100.00;100562.31;1709922;83;20096;-66
2021/10/30 03:05:12;;;;;;;;;;;;;;;2.81;100.00;100561.66;1685191;83;20109;-66
2021/10/30 03:07:38;;;;;;;;;;;;;;;2.78;100.00;100561.52;1713502;83;20085;-66
2021/10/30 03:10:06;;;;;;;;;;;;;;;2.78;100.00;100571.61;1707881;83;20070;-67
2021/10/30 03:12:33;;;;;;;;;;;;;;;2.75;100.00;100570.65;1707692;83;21076;-66
2021/10/30 03:15:01;;;;;;;;;;;;;;;2.72;100.00;100566.19;1708140;83;20090;-67
2021/10/30 03:17:27;;;;;;;;;;;;;;;2.72;100.00;100565.71;1707992;83;20114;-66
2021/10/30 03:19:54;;;;;;;;;;;;;;;2.70;100.00;100559.75;1707799;83;20169;-66
2021/10/30 03:22:20;;;;;;;;;;;;;;;2.65;100.00;100570.06;1707971;83;20223;-67
2021/10/30 03:24:48;;;;;;;;;;;;;;;2.58;100.00;100564.64;1707969;83;21056;-67
2021/10/30 03:27:15;;;;;;;;;;;;;;;2.51;100.00;100565.53;1678349;85;20100;-67
2021/10/30 03:29:42;;;;;;;;;;;;;;;2.58;100.00;100564.64;1673770;85;20100;-67
2021/10/30 03:32:08;;;;;;;;;;;;;;;2.65;100.00;100559.97;1677042;85;20187;-67
2021/10/30 03:34:35;;;;;;;;;;;;;;;2.73;100.00;100562.55;1673132;85;20097;-67
2021/10/30 03:37:02;;;;;;;;;;;;;;;2.74;100.00;100559.73;1673040;85;21162;-67
2021/10/30 03:39:28;;;;;;;;;;;;;;;2.67;100.00;100554.81;1675141;85;20097;-67
2021/10/30 03:41:54;;;;;;;;;;;;;;;2.68;100.00;100564.41;1683863;84;20385;-67
2021/10/30 03:44:21;;;;;;;;;;;;;;;2.72;100.00;100564.86;1707176;83;20118;-66
2021/10/30 03:46:47;;;;;;;;;;;;;;;2.77;100.00;100563.34;1706945;83;20427;-66
2021/10/30 03:49:13;;;;;;;;;;;;;;;2.78;100.00;100562.84;1709121;83;21118;-65
2021/10/30 03:51:40;;;;;;;;;;;;;;;2.80;100.00;100564.81;1705916;83;20368;-67
2021/10/30 03:54:06;;;;;;;;;;;;;;;2.85;100.00;100559.80;1704990;83;21037;-67
2021/10/30 03:56:33;;;;;;;;;;;;;;;2.86;100.00;100563.27;1702993;84;20398;-67
2021/10/30 03:59:00;;;;;;;;;;;;;;;2.88;100.00;100555.97;1706385;84;20074;-67
2021/10/30 04:01:28;;;;;;;;;;;;;;;2.85;100.00;100560.31;1707951;83;21130;-66
2021/10/30 04:03:55;;;;;;;;;;;;;;;2.83;100.00;100557.83;1706634;84;20379;-67
2021/10/30 04:06:22;;;;;;;;;;;;;;;2.79;100.00;100560.50;1701214;84;20092;-67
2021/10/30 04:08:49;;;;;;;;;;;;;;;2.81;100.00;100559.00;1714012;83;20467;-67
2021/10/30 04:11:15;;;;;;;;;;;;;;;2.83;100.00;100558.33;1713613;83;20407;-67
2021/10/30 04:13:42;;;;;;;;;;;;;;;2.82;100.00;100555.34;1687668;84;21073;-67
2021/10/30 04:16:08;;;;;;;;;;;;;;;2.76;100.00;100552.91;1706553;84;20415;-66
2021/10/30 04:18:34;;;;;;;;;;;;;;;2.69;100.00;100550.14;1708728;83;20078;-65
2021/10/30 04:21:01;;;;;;;;;;;;;;;2.69;100.00;100551.97;1716366;83;20117;-68
2021/10/30 04:23:28;;;;;;;;;;;;;;;2.67;100.00;100553.97;1709860;83;20133;-67
2021/10/30 04:25:55;;;;;;;;;;;;;;;2.64;100.00;100549.84;1704730;83;21187;-66
2021/10/30 04:28:21;;;;;;;;;;;;;;;2.62;100.00;100553.67;1706269;83;20117;-67
2021/10/30 04:30:48;;;;;;;;;;;;;;;2.63;100.00;100549.53;1708648;83;20400;-67
2021/10/30 04:33:17;;;;;;;;;;;;;;;2.63;100.00;100550.86;1712660;83;20567;-67
2021/10/30 04:35:44;;;;;;;;;;;;;;;2.60;100.00;100547.25;1710289;83;20098;-66
2021/10/30 04:38:10;;;;;;;;;;;;;;;2.60;100.00;100548.57;1703851;83;21140;-67
2021/10/30 04:40:37;;;;;;;;;;;;;;;2.58;100.00;100554.55;1700158;83;20478;-66
2021/10/30 04:43:05;;;;;;;;;;;;;;;2.56;100.00;100554.71;1705121;83;20070;-66
2021/10/30 04:45:32;;;;;;;;;;;;;;;2.56;100.00;100553.39;1691516;84;20157;-68
2021/10/30 04:47:59;;;;;;;;;;;;;;;2.61;100.00;100553.36;1654804;86;20090;-67
2021/10/30 04:50:25;;;;;;;;;;;;;;;2.65;100.00;100557.32;1680179;84;21737;-67
2021/10/30 04:52:52;;;;;;;;;;;;;;;2.62;100.00;100560.30;1656796;85;20105;-67
2021/10/30 04:55:18;;;;;;;;;;;;;;;2.61;100.00;100561.32;1672176;85;20434;-68
2021/10/30 04:57:45;;;;;;;;;;;;;;;2.57;100.00;100563.00;1679449;85;20111;-68
2021/10/30 05:00:14;;;;;;;;;;;;;;;2.55;100.00;100562.86;1663874;85;20504;-68
2021/10/30 05:02:41;;;;;;;;;;;;;;;2.53;100.00;100569.65;1676595;85;21146;-68
2021/10/30 05:05:16;;;;;;;;;;;;;;;2.56;100.00;100569.80;1650084;87;20519;-66
2021/10/30 05:07:44;;;;;;;;;;;;;;;2.61;100.00;100560.81;1674167;85;20116;-67
2021/10/30 05:10:10;;;;;;;;;;;;;;;2.67;100.00;100569.39;1676234;85;20644;-68
2021/10/30 05:12:37;;;;;;;;;;;;;;;2.75;100.00;100574.62;1630070;85;20512;-66
2021/10/30 05:15:04;;;;;;;;;;;;;;;2.83;100.00;100570.27;1679674;85;21139;-65
2021/10/30 05:17:31;;;;;;;;;;;;;;;2.88;100.00;100579.83;1692933;84;20100;-66
2021/10/30 05:20:06;;;;;;;;;;;;;;;2.96;100.00;100583.73;1675016;85;20085;-68
2021/10/30 05:22:54;;;;;;;;;;;;;;;3.06;100.00;100582.98;1611548;88;20121;-66
2021/10/30 05:25:22;;;;;;;;;;;;;;;3.17;100.00;100586.53;1625547;88;20414;-66
2021/10/30 05:27:48;;;;;;;;;;;;;;;3.29;100.00;100580.80;1625960;88;21154;-66
2021/10/30 05:30:16;;;;;;;;;;;;;;;3.41;100.00;100585.98;1623111;87;20089;-68
2021/10/30 05:32:42;;;;;;;;;;;;;;;3.53;100.00;100588.52;1625003;88;20165;-67
2021/10/30 05:35:26;;;;;;;;;;;;;;;3.69;100.00;100586.68;1623285;88;20132;-67
2021/10/30 05:38:14;;;;;;;;;;;;;;;3.83;100.00;100587.19;1588058;90;20111;-67
2021/10/30 05:40:41;;;;;;;;;;;;;;;3.96;100.00;100594.50;1574785;90;21045;-67
2021/10/30 05:43:07;;;;;;;;;;;;;;;4.09;100.00;100599.96;1595427;90;20163;-66
2021/10/30 05:45:34;;;;;;;;;;;;;;;4.16;100.00;100604.03;1595718;90;20158;-66
2021/10/30 05:48:03;;;;;;;;;;;;;;;4.27;100.00;100604.89;1593878;90;20167;-66
2021/10/30 05:50:30;;;;;;;;;;;;;;;4.34;100.00;100608.97;1594050;90;20146;-67
2021/10/30 05:52:56;;;;;;;;;;;;;;;4.41;100.00;100615.16;1598669;86;21772;-67
2021/10/30 05:55:23;;;;;;;;;;;;;;;4.49;100.00;100614.55;1637059;86;20421;-67
2021/10/30 05:57:49;;;;;;;;;;;;;;;4.63;100.00;100612.88;1613199;87;20490;-67
2021/10/30 06:00:16;;;;;;;;;;;;;;;4.71;100.00;100617.24;1636055;87;20125;-67
2021/10/30 06:02:42;;;;;;;;;;;;;;;4.78;100.00;100623.94;1609087;87;20163;-67
2021/10/30 06:05:08;;;;;;;;;;;;;;;4.90;100.00;100617.94;1629917;87;21051;-67
2021/10/30 06:07:35;;;;;;;;;;;;;;;5.02;100.00;100621.41;1635829;87;20479;-67
2021/10/30 06:10:01;;;;;;;;;;;;;;;5.20;100.00;100616.45;1678525;83;20164;-68
2021/10/30 06:12:28;;;;;;;;;;;;;;;5.40;100.00;100613.13;1680972;83;20591;-67
2021/10/30 06:14:56;;;;;;;;;;;;;;;5.55;100.00;100616.50;1662869;85;20124;-68
2021/10/30 06:17:22;;;;;;;;;;;;;;;5.74;100.00;100614.99;1685064;83;21123;-68
2021/10/30 06:19:49;;;;;;;;;;;;;;;5.76;100.00;100612.96;1711129;82;20395;-67
2021/10/30 06:22:16;;;;;;;;;;;;;;;5.85;100.00;100616.27;1716245;82;20190;-67
2021/10/30 06:24:42;;;;;;;;;;;;;;;6.01;100.00;100615.98;1712668;82;20706;-68
2021/10/30 06:27:29;;;;;;;;;;;;;;;6.20;100.00;100617.11;1713369;82;20260;-67
2021/10/30 06:30:13;;;;;;;;;;;;;;;6.33;100.00;100614.48;1712883;82;21067;-68
2021/10/30 06:32:51;;;;;;;;;;;;;;;6.47;100.00;100612.69;1691272;83;20404;-69
2021/10/30 06:35:19;;;;;;;;;;;;;;;6.65;100.00;100616.92;1697824;82;20185;-68
2021/10/30 06:37:58;;;;;;;;;;;;;;;6.76;100.00;100618.20;1716531;82;20079;-66
2021/10/30 06:40:25;;;;;;;;;;;;;;;6.95;100.00;100621.90;1692310;83;20158;-67
2021/10/30 06:42:52;;;;;;;;;;;;;;;7.15;100.00;100624.58;1697867;83;21776;-67
2021/10/30 06:45:18;;;;;;;;;;;;;;;7.38;100.00;100628.71;1696302;83;20433;-68
2021/10/30 06:47:46;;;;;;;;;;;;;;;7.47;100.00;100634.97;1691796;83;20164;-68
2021/10/30 06:50:30;;;;;;;;;;;;;;;7.85;100.00;100635.62;1670434;83;20877;-68
2021/10/30 06:53:04;;;;;;;;;;;;;;;8.11;100.00;100636.07;1696142;83;20284;-68
2021/10/30 06:55:31;;;;;;;;;;;;;;;8.26;100.00;100635.81;1655116;84;21065;-68
2021/10/30 06:57:58;;;;;;;;;;;;;;;8.18;100.00;100641.90;1681460;84;20261;-68
2021/10/30 07:00:24;;;;;;;;;;;;;;;8.36;100.00;100638.84;1685079;84;20467;-68
2021/10/30 07:02:52;;;;;;;;;;;;;;;8.44;100.00;100640.48;1670107;84;20814;-68
2021/10/30 07:08:59;;;;;;;;;;;;;;;8.67;100.00;100635.12;1667493;84;21891;-68
2021/10/30 07:11:44;;;;;;;;;;;;;;;8.97;100.00;100643.39;1671169;84;20078;-68
2021/10/30 07:14:13;;;;;;;;;;;;;;;8.96;100.00;100645.75;1591062;89;20454;-68
2021/10/30 07:17:12;;;;;;;;;;;;;;;9.03;100.00;100637.68;1654943;85;20217;-69
2021/10/30 07:27:07;;;;;;;;;;;;;;;9.28;100.00;100649.75;1580309;90;20458;-70
2021/10/30 07:29:35;;;;;;;;;;;;;;;9.30;100.00;100643.66;1580201;91;20414;-65
2021/10/30 07:32:01;;;;;;;;;;;;;;;9.48;100.00;100644.22;1573195;89;20461;-66
2021/10/30 07:34:27;;;;;;;;;;;;;;;9.44;100.00;100657.25;1573242;91;20188;-66
2021/10/30 07:36:54;;;;;;;;;;;;;;;9.54;100.00;100656.23;1566356;91;21286;-66
2021/10/30 07:39:22;;;;;;;;;;;;;;;9.47;100.00;100651.45;1588652;89;20110;-65
2021/10/30 07:41:48;;;;;;;;;;;;;;;9.44;100.00;100660.75;1579402;91;20122;-68
2021/10/30 07:44:15;;;;;;;;;;;;;;;9.36;100.00;100655.67;1580022;89;20212;-68
2021/10/30 07:46:42;;;;;;;;;;;;;;;9.00;100.00;100653.66;1589853;89;20166;-67
2021/10/30 07:49:10;;;;;;;;;;;;;;;8.85;100.00;100653.16;1592832;89;21793;-68
2021/10/30 07:51:36;;;;;;;;;;;;;;;8.26;100.00;100652.38;1594052;89;20283;-68
2021/10/30 07:54:03;;;;;;;;;;;;;;;8.53;100.00;100667.84;1589637;89;20179;-67
2021/10/30 07:56:30;;;;;;;;;;;;;;;8.67;100.00;100665.41;1595404;89;20655;-68
2021/10/30 07:58:56;;;;;;;;;;;;;;;8.85;100.00;100666.54;1616342;87;20179;-68
2021/10/30 08:01:23;;;;;;;;;;;;;;;9.21;100.00;100674.74;1687277;83;21593;-67
2021/10/30 08:03:50;;;;;;;;;;;;;;;9.25;100.00;100668.95;1679017;81;20079;-68
2021/10/30 08:06:16;;;;;;;;;;;;;;;9.32;100.00;100671.06;1729645;82;20488;-68
2021/10/30 08:08:44;;;;;;;;;;;;;;;9.50;100.00;100665.73;1694867;83;21035;-65
2021/10/30 08:11:10;;;;;;;;;;;;;;;9.56;100.00;100672.91;1704824;83;20955;-65
2021/10/30 08:13:36;;;;;;;;;;;;;;;9.77;100.00;100672.20;1709880;83;21157;-66
2021/10/30 08:16:04;;;;;;;;;;;;;;;9.96;100.00;100667.69;1715500;83;20167;-65
2021/10/30 08:18:30;;;;;;;;;;;;;;;9.93;100.00;100668.14;1713624;83;20399;-66
2021/10/30 08:20:56;;;;;;;;;;;;;;;9.81;100.00;100663.50;1716501;82;20136;-66
2021/10/30 08:23:22;;;;;;;;;;;;;;;9.71;100.00;100661.04;1716838;82;20369;-66
2021/10/30 08:25:50;;;;;;;;;;;;;;;9.86;100.00;100662.84;1709043;82;21512;-66
2021/10/30 08:28:17;;;;;;;;;;;;;;;9.91;100.00;100666.20;1711153;83;20148;-65
2021/10/30 08:30:43;;;;;;;;;;;;;;;9.75;100.00;100660.37;1710640;83;20150;-66
2021/10/30 08:33:11;;;;;;;;;;;;;;;9.89;100.00;100658.37;1707623;84;20189;-66
2021/10/30 08:35:41;;;;;;;;;;;;;;;10.21;100.00;100655.55;1708247;84;20391;-66
2021/10/30 08:38:09;;;;;;;;;;;;;;;9.98;100.00;100656.23;1712891;82;22353;-64
2021/10/30 08:40:40;;;;;;;;;;;;;;;9.93;100.00;100650.71;1691077;84;20418;-65
2021/10/30 08:43:08;;;;;;;;;;;;;;;10.06;100.00;100658.60;1712503;84;20419;-67
2021/10/30 08:45:36;;;;;;;;;;;;;;;9.96;100.00;100656.44;1711275;83;20276;-66
2021/10/30 08:48:04;;;;;;;;;;;;;;;10.24;100.00;100648.38;1705280;83;20089;-68
2021/10/30 08:50:39;;;;;;;;;;;;;;;10.04;100.00;100666.05;1708623;83;20181;-69
2021/10/30 08:53:14;;;;;;;;;;;;;;;10.01;100.00;100660.61;1689058;84;20108;-69
2021/10/30 08:56:17;;;;;;;;;;;;;;;9.82;100.00;100661.14;1613193;87;20157;-69
2021/10/30 08:58:44;;;;;;;;;;;;;;;9.89;100.00;100658.37;1605944;88;20169;-68
2021/10/30 09:01:10;;;;;;;;;;;;;;;9.80;100.00;100660.53;1581928;89;20164;-68
2021/10/30 09:03:38;;;;;;;;;;;;;;;10.12;100.00;100661.75;1601753;88;21144;-68
2021/10/30 09:06:04;;;;;;;;;;;;;;;9.95;100.00;100663.38;1604909;87;20177;-68
2021/10/30 09:08:54;;;;;;;;;;;;;;;9.93;100.00;100661.44;1602533;89;20128;-70
2021/10/30 09:14:43;;;;;;;;;;;;;;;10.35;100.00;100662.95;1525027;92;20186;-71
2021/10/30 09:21:32;;;;;;;;;;;;;;;10.18;100.00;100654.13;1511528;94;20487;-69
2021/10/30 09:23:59;;;;;;;;;;;;;;;10.16;100.00;100659.42;1489457;95;20429;-68
2021/10/30 09:26:30;;;;;;;;;;;;;;;10.03;100.00;100661.21;1510732;95;20155;-67
2021/10/30 09:29:08;;;;;;;;;;;;;;;9.64;100.00;100654.39;1510953;93;20422;-68
2021/10/30 09:31:34;;;;;;;;;;;;;;;9.63;100.00;100660.28;1511289;95;21234;-66
2021/10/30 09:34:12;;;;;;;;;;;;;;;9.98;100.00;100654.36;1576139;91;20193;-68
2021/10/30 09:36:40;;;;;;;;;;;;;;;9.99;100.00;100653.30;1547801;91;20252;-66
2021/10/30 09:39:10;;;;;;;;;;;;;;;10.17;100.00;100636.94;1574409;91;20152;-67
2021/10/30 09:41:42;;;;;;;;;;;;;;;10.16;100.00;100650.84;1576106;89;20203;-67
2021/10/30 09:44:16;;;;;;;;;;;;;;;10.31;100.00;100643.79;1577124;88;21773;-67
2021/10/30 09:46:47;;;;;;;;;;;;;;;10.40;100.00;100646.47;1573616;89;20244;-69
2021/10/30 09:49:26;;;;;;;;;;;;;;;9.85;100.00;100653.17;1666732;83;20173;-67
2021/10/30 09:52:10;;;;;;;;;;;;;;;9.99;100.00;100645.78;1706667;83;20174;-66
2021/10/30 09:54:46;;;;;;;;;;;;;;;9.74;100.00;100645.84;1679877;83;20464;-64
2021/10/30 09:57:14;;;;;;;;;;;;;;;9.28;100.00;100642.52;1710696;83;21195;-64
2021/10/30 09:59:42;;;;;;;;;;;;;;;9.33;100.00;100648.05;1710339;82;20113;-65
2021/10/30 10:02:09;;;;;;;;;;;;;;;9.32;100.00;100654.45;1710588;83;20095;-67
2021/10/30 10:04:43;;;;;;;;;;;;;;;9.44;100.00;100641.17;1711532;82;20998;-67
2021/10/30 10:07:10;;;;;;;;;;;;;;;9.79;100.00;100646.81;1711153;83;20447;-67
2021/10/30 10:09:38;;;;;;;;;;;;;;;10.05;100.00;100646.25;1673872;83;21212;-66
2021/10/30 10:12:07;;;;;;;;;;;;;;;10.31;100.00;100642.45;1710868;83;20157;-67
2021/10/30 10:14:36;;;;;;;;;;;;;;;10.19;100.00;100645.05;1711164;83;20105;-66
2021/10/30 10:17:03;;;;;;;;;;;;;;;10.15;100.00;100636.33;1689513;83;20114;-67
2021/10/30 10:19:29;;;;;;;;;;;;;;;10.53;100.00;100644.13;1700629;83;20390;-66
2021/10/30 10:21:56;;;;;;;;;;;;;;;10.93;100.00;100641.72;1711599;83;21892;-64
2021/10/30 10:24:31;;;;;;;;;;;;;;;10.80;100.00;100645.92;1710111;83;20101;-65
2021/10/30 10:26:59;;;;;;;;;;;;;;;10.47;100.00;100644.52;1710321;83;20126;-66
2021/10/30 10:29:35;;;;;;;;;;;;;;;10.44;100.00;100640.95;1709097;83;20094;-66
2021/10/30 10:32:04;;;;;;;;;;;;;;;10.35;100.00;100636.94;1710817;83;20407;-67
2021/10/30 10:34:37;;;;;;;;;;;;;;;10.53;100.00;100629.89;1709020;82;21146;-66
2021/10/30 10:37:21;;;;;;;;;;;;;;;10.65;100.00;100630.76;1706097;83;20118;-66
2021/10/30 10:39:50;;;;;;;;;;;;;;;10.74;100.00;100630.74;1675672;85;20076;-66
2021/10/30 10:42:19;;;;;;;;;;;;;;;10.70;100.00;100630.36;1709275;82;20287;-67
2021/10/30 10:44:54;;;;;;;;;;;;;;;10.51;100.00;100621.56;1704795;83;20146;-67
2021/10/30 10:47:41;;;;;;;;;;;;;;;10.85;100.00;100626.45;1707572;83;21177;-66
2021/10/30 10:50:13;;;;;;;;;;;;;;;11.03;100.00;100623.70;1610076;87;20197;-66
2021/10/30 10:53:02;;;;;;;;;;;;;;;10.94;100.00;100618.36;1605434;87;20205;-67
2021/10/30 10:55:29;;;;;;;;;;;;;;;10.68;100.00;100624.92;1606033;87;20193;-67
2021/10/30 10:58:00;;;;;;;;;;;;;;;10.46;100.00;100623.27;1605064;88;20126;-67
2021/10/30 11:00:27;;;;;;;;;;;;;;;10.53;100.00;100619.97;1607936;87;21172;-66
2021/10/30 11:02:55;;;;;;;;;;;;;;;10.73;100.00;100613.81;1602734;87;20205;-67
2021/10/30 11:05:29;;;;;;;;;;;;;;;10.69;100.00;100611.28;1609023;87;20395;-65
2021/10/30 11:07:59;;;;;;;;;;;;;;;10.62;100.00;100617.80;1607940;87;20191;-67
2021/10/30 11:10:29;;;;;;;;;;;;;;;10.37;100.00;100611.23;1603095;89;20437;-66
2021/10/30 11:13:10;;;;;;;;;;;;;;;10.46;100.00;100605.31;1606042;87;21193;-66
2021/10/30 11:15:55;;;;;;;;;;;;;;;10.43;100.00;100595.55;1583921;89;20479;-67
2021/10/30 11:21:16;;;;;;;;;;;;;;;10.42;100.00;100609.49;1606824;87;20443;-65
2021/10/30 11:23:45;;;;;;;;;;;;;;;10.40;100.00;100606.73;1605427;89;20221;-68
2021/10/30 11:29:50;;;;;;;;;;;;;;;10.47;100.00;100601.58;1660824;84;20094;-68
2021/10/30 11:32:17;;;;;;;;;;;;;;;10.43;100.00;100603.06;1662139;84;20558;-67
2021/10/30 11:34:51;;;;;;;;;;;;;;;10.74;100.00;100605.23;1679450;85;20735;-68
2021/10/30 11:37:18;;;;;;;;;;;;;;;11.25;100.00;100589.03;1656591;85;20196;-67
2021/10/30 11:39:46;;;;;;;;;;;;;;;11.11;100.00;100587.61;1642582;86;21137;-67
2021/10/30 11:42:13;;;;;;;;;;;;;;;10.84;100.00;100585.34;1659405;84;20158;-67
2021/10/30 11:44:50;;;;;;;;;;;;;;;10.71;100.00;100575.63;1657464;86;20088;-68
2021/10/30 11:47:23;;;;;;;;;;;;;;;10.78;100.00;100590.31;1656987;84;20186;-66
2021/10/30 11:49:52;;;;;;;;;;;;;;;10.78;100.00;100591.66;1654285;86;20139;-68
2021/10/30 11:52:31;;;;;;;;;;;;;;;10.90;100.00;100583.59;1636825;84;21515;-69
2021/10/30 11:54:59;;;;;;;;;;;;;;;10.92;100.00;100587.69;1698390;83;20160;-68
2021/10/30 11:57:25;;;;;;;;;;;;;;;11.22;100.00;100580.60;1697957;83;20196;-67
2021/10/30 12:00:04;;;;;;;;;;;;;;;11.12;100.00;100567.74;1707113;83;20106;-64
2021/10/30 12:02:40;;;;;;;;;;;;;;;11.08;100.00;100579.49;1685741;83;20148;-65
2021/10/30 12:05:11;;;;;;;;;;;;;;;10.88;100.00;100578.47;1691746;85;21747;-65
2021/10/30 12:07:38;;;;;;;;;;;;;;;11.00;100.00;100582.53;1691275;83;20182;-64
2021/10/30 12:10:05;;;;;;;;;;;;;;;11.22;100.00;100577.41;1691144;83;20105;-69
2021/10/30 12:12:32;;;;;;;;;;;;;;;11.14;100.00;100581.77;1691683;83;20166;-68
2021/10/30 12:15:00;;;;;;;;;;;;;;;10.92;100.00;100572.91;1713623;82;20123;-67
2021/10/30 12:17:28;;;;;;;;;;;;;;;10.83;100.00;100577.00;1676020;84;21122;-69
2021/10/30 12:20:05;;;;;;;;;;;;;;;10.61;100.00;100574.56;1712036;84;20238;-68
2021/10/30 12:25:30;;;;;;;;;;;;;;;10.58;100.00;100562.91;1716476;82;20460;-68
2021/10/30 12:27:58;;;;;;;;;;;;;;;10.57;100.00;100570.16;1717209;82;20461;-68
2021/10/30 12:30:31;;;;;;;;;;;;;;;10.47;100.00;100555.94;1718509;83;21106;-68
2021/10/30 12:33:10;;;;;;;;;;;;;;;10.52;100.00;100561.97;1718379;83;20124;-67
2021/10/30 12:35:39;;;;;;;;;;;;;;;10.69;100.00;100560.80;1718366;83;20128;-68
2021/10/30 12:38:14;;;;;;;;;;;;;;;10.72;100.00;100551.75;1718394;83;20116;-67
2021/10/30 12:40:44;;;;;;;;;;;;;;;10.67;100.00;100549.46;1715160;82;20077;-67
2021/10/30 12:43:21;;;;;;;;;;;;;;;10.58;100.00;100549.49;1711947;82;21192;-68
2021/10/30 12:59:59;;;;;;;;;;;;;;;10.27;100.00;100562.09;1605456;88;21263;-68
2021/10/30 13:02:27;;;;;;;;;;;;;;;10.15;100.00;100557.20;1588226;89;20219;-68
2021/10/30 13:04:54;;;;;;;;;;;;;;;10.03;100.00;100557.12;1594590;88;20183;-67
2021/10/30 13:07:31;;;;;;;;;;;;;;;10.04;100.00;100548.87;1580129;89;20223;-68
2021/10/30 13:10:00;;;;;;;;;;;;;;;10.09;100.00;100553.53;1617625;88;20172;-68
2021/10/30 13:12:31;;;;;;;;;;;;;;;9.93;100.00;100544.25;1569837;90;20179;-68
2021/10/30 13:15:18;;;;;;;;;;;;;;;9.90;100.00;100544.71;1573867;91;20459;-69
2021/10/30 13:18:02;;;;;;;;;;;;;;;9.83;100.00;100541.28;1534906;93;20119;-68
2021/10/30 13:20:29;;;;;;;;;;;;;;;9.75;100.00;100539.73;1520528;93;20328;-67
2021/10/30 13:22:55;;;;;;;;;;;;;;;9.63;100.00;100530.80;1528778;93;20466;-68
2021/10/30 13:25:22;;;;;;;;;;;;;;;9.59;100.00;100534.95;1522425;92;22224;-66